St John, Virgin Islands
Current Conditions -  °F | °C
As of 1:53 PM on Friday 24 Oct 2014 (Local Time) from TIST Reporting Station
Clear Clear  
Wind Chill: 87°   Ceiling: Unl
Heat Index: 97°   Visibility: 10mi
Dew Point: 76°   Wind: 10mph
Humidity: 69%   Direction: 140°SE
Pressure: 29.89"   Gusts: NA
Location:  18.3333°N, 64.7943°W
Report Text: TIST 241753Z AUTO 14009KT 10SM CLR 31/24 A2989 RMK AO2 SLP123 T03060244 10311 20283 58025 TSNO
Loading
Personal Weather Stations






























Interactive Weather Map
Tropical Storm Tracking
New forecast layout! Learn more

10-Day Weather Forecast

Advertisements
Track Severe Weather on mobile